Flight Track Log - Related Links

Times and Time Zones

All times are in EDT time to prevent confusion due to time zone crossing. See the SWA1688 flight status page for this flight to view local times or setup timezone preferences in your user account.


Time Position Orientation Groundspeed Altitude Reporting Facility
EDT Latitude Longitude Course Direction KTS MPH feet Rate Location/Type
Sat 08:27:20 AM 38.7333 -90.2833 92° East 200 230 2,800  Level Gateway (St. Louis) TRACON
Sat 08:28:50 AM 38.7300 -90.1578 92° East 238 274 7,500 3,158 Climbing Kansas City Center
Sat 08:29:52 AM 38.7400 -90.0589 83° East 264 304 10,800 2,732 Climbing Kansas City Center
Sat 08:30:53 AM 38.7514 -89.9400 83° East 324 373 13,100 2,557 Climbing Kansas City Center
Sat 08:31:54 AM 38.7633 -89.8136 83° East 354 407 16,000 2,705 Climbing Kansas City Center
Sat 08:32:55 AM 38.7758 -89.6814 83° East 369 425 18,600 2,780 Climbing Kansas City Center
Sat 08:33:57 AM 38.7908 -89.5250 83° East 388 447 21,700 2,829 Climbing Kansas City Center
Sat 08:34:58 AM 38.8078 -89.3883 81° East 389 448 24,400 2,066 Climbing Kansas City Center
Sat 08:35:59 AM 38.8264 -89.2478 80° East 399 459 25,900 1,672 Climbing Kansas City Center
Sat 08:37:00 AM 38.8464 -89.0867 81° East 423 487 27,800 1,854 Climbing Kansas City Center
Sat 08:38:02 AM 38.8664 -88.9403 80° East 427 491 29,700 2,195 Climbing Kansas City Center
Sat 08:39:03 AM 38.8858 -88.7942 80° East 419 482 32,300 2,262 Climbing Kansas City Center
Sat 08:40:04 AM 38.9017 -88.6556 82° East 399 459 34,300 1,770 Climbing Kansas City Center
Sat 08:41:05 AM 38.9181 -88.5247 81° East 390 449 35,900 1,475 Climbing Kansas City Center
Sat 08:42:06 AM 38.9450 -88.3992 75° East 364 419 37,300 1,122 Climbing Kansas City Center
Sat 08:43:08 AM 38.9814 -88.2717 70° East 369 425 38,200 829 Climbing Kansas City Center
Sat 08:44:09 AM 39.0128 -88.1439 72° East 373 429 39,000 397 Climbing Kansas City Center
Sat 08:45:09 AM 39.0314 -88.0125 80° East 380 437 39,000  Level Indianapolis Center
Sat 08:46:09 AM 39.0547 -87.8792 77° East 379 436 39,000  Level Indianapolis Center
Sat 08:47:09 AM 39.0769 -87.7456 78° East 379 436 39,000  Level Indianapolis Center
Sat 08:48:13 AM 39.0992 -87.6136 78° East 375 432 39,000  Level Indianapolis Center
Sat 08:49:14 AM 39.1239 -87.4603 78° East 380 437 39,000  Level Indianapolis Center
Sat 08:50:14 AM 39.1461 -87.3286 78° East 378 435 39,000  Level Indianapolis Center
Sat 08:51:15 AM 39.1681 -87.1969 78° East 379 436 39,000  Level Indianapolis Center
Sat 08:52:18 AM 39.1889 -87.0642 79° East 380 437 39,000  Level Indianapolis Center
Sat 08:53:19 AM 39.2094 -86.9322 79° East 378 435 39,000  Level Indianapolis Center
Sat 08:54:20 AM 39.2319 -86.8003 78° East 380 437 39,000 -541 Level Indianapolis Center
Sat 08:55:21 AM 39.2567 -86.6381 79° East 386 444 37,900 -984 Descending Indianapolis Center
Sat 08:56:22 AM 39.2781 -86.5028 78° East 388 447 37,000 -443 Descending Indianapolis Center
Sat 08:57:23 AM 39.2981 -86.3664 79° East 391 450 37,000  Level Indianapolis Center
Sat 08:58:26 AM 39.3194 -86.2281 79° East 397 457 37,000  Level Indianapolis Center
Sat 08:59:26 AM 39.3411 -86.0906 78° East 396 456 37,000  Level Indianapolis Center
Sat 09:00:27 AM 39.3619 -85.9503 79° East 401 461 37,000  Level Indianapolis Center
Sat 09:01:28 AM 39.3844 -85.8081 78° East 407 468 37,000  Level Indianapolis Center
Sat 09:02:29 AM 39.4100 -85.6364 79° East 411 473 37,000  Level Indianapolis Center
Sat 09:03:32 AM 39.4303 -85.4919 80° East 411 473 37,000  Level Indianapolis Center
Sat 09:04:32 AM 39.4525 -85.3469 79° East 413 475 37,000  Level Indianapolis Center
Sat 09:05:33 AM 39.4731 -85.2019 80° East 412 474 37,000  Level Indianapolis Center
Sat 09:06:36 AM 39.4933 -85.0611 79° East 404 465 37,000  Level Indianapolis Center
Sat 09:07:37 AM 39.5125 -84.9183 80° East 403 464 37,000  Level Indianapolis Center
Sat 09:08:38 AM 39.5369 -84.7508 79° East 414 476 37,000  Level Indianapolis Center
Sat 09:09:39 AM 39.5575 -84.6003 80° East 421 484 37,000  Level Indianapolis Center
Sat 09:10:40 AM 39.5783 -84.4497 80° East 421 484 37,000  Level Indianapolis Center
Sat 09:11:44 AM 39.5989 -84.2989 80° East 422 486 37,000  Level Indianapolis Center
Sat 09:12:45 AM 39.6192 -84.1475 80° East 422 486 37,000  Level Indianapolis Center
Sat 09:13:45 AM 39.6394 -83.9944 80° East 428 493 37,000  Level Indianapolis Center
Sat 09:14:46 AM 39.6592 -83.8422 80° East 425 489 37,000  Level Indianapolis Center
Sat 09:15:50 AM 39.6783 -83.6911 81° East 424 488 37,000  Level Indianapolis Center
Sat 09:16:52 AM 39.6994 -83.5169 81° East 423 487 37,000  Level Indianapolis Center
Sat 09:17:53 AM 39.7211 -83.3678 79° East 425 489 37,000  Level Indianapolis Center
Sat 09:18:53 AM 39.7403 -83.2189 80° East 420 483 37,000  Level Indianapolis Center
Sat 09:19:56 AM 39.7594 -83.0667 81° East 426 490 37,000  Level Indianapolis Center
Sat 09:20:58 AM 39.7781 -82.9142 81° East 425 489 37,000  Level Indianapolis Center
Sat 09:21:59 AM 39.7978 -82.7608 80° East 427 491 37,000  Level Indianapolis Center
Sat 09:22:59 AM 39.8158 -82.6086 81° East 424 488 37,000  Level Indianapolis Center
Sat 09:24:03 AM 39.8211 -82.4311 88° East 418 481 37,000  Level Indianapolis Center
Sat 09:25:03 AM 39.8253 -82.2794 88° East 417 480 37,000  Level Indianapolis Center
Sat 09:26:04 AM 39.8286 -82.1256 88° East 422 486 37,000  Level Indianapolis Center
Sat 09:27:08 AM 39.8322 -81.9714 88° East 424 488 37,000  Level Indianapolis Center
Sat 09:28:09 AM 39.8361 -81.8175 88° East 422 486 37,000  Level Indianapolis Center
Sat 09:29:09 AM 39.8303 -81.6656 93° East 417 480 37,000  Level Indianapolis Center
Sat 09:30:10 AM 39.8219 -81.5158 94° East 414 476 37,000  Level Indianapolis Center
Sat 09:31:14 AM 39.8142 -81.3711 94° East 417 480 37,000  Level Indianapolis Center
Sat 09:32:15 AM 39.8050 -81.2200 94° East 417 480 37,000  Level Indianapolis Center
Sat 09:33:16 AM 39.7939 -81.0386 95° East 417 480 37,000  Level Indianapolis Center
Sat 09:34:20 AM 39.7844 -80.8872 95° East 419 482 37,000  Level Indianapolis Center
Sat 09:35:21 AM 39.7756 -80.7367 94° East 418 481 37,000  Level Indianapolis Center
Sat 09:36:21 AM 39.7664 -80.5839 94° East 421 484 37,000  Level Indianapolis Center
Sat 09:37:22 AM 39.7561 -80.4308 95° East 423 487 37,000  Level Indianapolis Center
Sat 09:38:26 AM 39.7458 -80.2769 95° East 426 490 37,000  Level Indianapolis Center
Sat 09:39:28 AM 39.7358 -80.1225 95° East 427 491 37,000  Level Indianapolis Center
Sat 09:40:19 AM 39.7278 -79.9733 94° East 436 502 37,000 -771 Level Washington Center
Sat 09:41:17 AM 39.7167 -79.8214 95° East 436 502 35,600 -1,916 Descending Washington Center
Sat 09:42:18 AM 39.7072 -79.6672 95° East 431 496 33,200 -2,281 Descending Washington Center
Sat 09:43:18 AM 39.6956 -79.5183 96° East 425 489 31,000 -2,118 Descending Washington Center
Sat 09:44:17 AM 39.6836 -79.3747 96° East 419 482 29,000 -2,067 Descending Washington Center
Sat 09:45:17 AM 39.6753 -79.2367 94° East 405 466 26,900 -1,983 Descending Washington Center
Sat 09:46:18 AM 39.6628 -79.0986 97° East 394 453 25,000 -934 Descending Washington Center
Sat 09:47:19 AM 39.6392 -78.9733 104° East 373 429 25,000 -252 Level Washington Center
Sat 09:48:17 AM 39.6092 -78.8536 108° East 373 429 24,500 -763 Descending Washington Center
Sat 09:49:17 AM 39.5792 -78.7228 107° East 378 435 23,500 -1,261 Descending Washington Center
Sat 09:50:16 AM 39.5514 -78.5925 105° East 378 435 22,000 -1,686 Descending Washington Center
Sat 09:51:18 AM 39.5231 -78.4675 106° East 373 429 20,100 -1,805 Descending Washington Center
Sat 09:52:19 AM 39.4967 -78.3456 106° East 360 414 18,300 -1,815 Descending Washington Center
Sat 09:53:17 AM 39.4703 -78.2289 106° East 349 402 16,500 -1,664 Descending Washington Center
Sat 09:54:18 AM 39.4436 -78.1122 106° East 344 396 15,000 -1,082 Descending Washington Center
Sat 09:55:19 AM 39.4186 -78.0014 106° East 339 390 14,300 -857 Descending Washington Center
Sat 09:56:17 AM 39.3936 -77.8931 107° East 323 372 13,300 -1,017 Descending Washington Center
Sat 09:57:17 AM 39.3939 -77.7694 90° East 323 372 12,300 -1,000 Descending Washington Center
Sat 09:58:17 AM 39.4086 -77.6517 81° East 323 372 11,300 -645 Descending Washington Center
Sat 09:59:18 AM 39.4250 -77.5394 79° East 323 372 11,000 -148 Descending Washington Center
Sat 10:00:19 AM 39.4369 -77.4350 82° East 309 356 11,000  Level Washington Center
Sat 10:01:02 AM 39.4500 -77.3500 79° East 288 331 11,000  Level Potomac TRACON
Sat 10:01:56 AM 39.4667 -77.2500 78° East 292 336 11,000 -158 Level Potomac TRACON
Sat 10:02:56 AM 39.4667 -77.1500 90° East 300 345 10,700 -895 Descending Potomac TRACON
Sat 10:03:50 AM 39.4833 -77.0500 78° East 299 344 9,300 -1,474 Descending Potomac TRACON
Sat 10:04:50 AM 39.4833 -76.9500 90° East 295 339 7,900 -1,400 Descending Potomac TRACON
Sat 10:05:50 AM 39.4833 -76.8500 90° East 283 326 6,500 -1,400 Descending Potomac TRACON
Sat 10:06:50 AM 39.5000 -76.7500 78° East 282 325 5,100 -1,250 Descending Potomac TRACON
Sat 10:07:50 AM 39.4833 -76.6500 102° East 273 314 4,000 -579 Descending Potomac TRACON
Sat 10:08:44 AM 39.4500 -76.6000 131° Southeast 217 250 4,000  Level Potomac TRACON
Sat 10:09:44 AM 39.4000 -76.5500 142° Southeast 214 246 4,000  Level Potomac TRACON
Sat 10:10:44 AM 39.3667 -76.5000 131° Southeast 212 244 4,000  Level Potomac TRACON
Sat 10:11:44 AM 39.3167 -76.4500 142° Southeast 185 213 4,000 -150 Level Potomac TRACON
Sat 10:12:44 AM 39.2833 -76.4000 131° Southeast 172 198 3,700 -700 Descending Potomac TRACON
Sat 10:13:44 AM 39.2500 -76.3833 159° South 169 194 2,600 -895 Descending Potomac TRACON
Sat 10:14:38 AM 39.2000 -76.3833 180° South 167 192 2,000 -316 Descending Potomac TRACON
Sat 10:15:38 AM 39.1667 -76.4000 201° Southwest 176 203 2,000  Level Potomac TRACON
Sat 10:16:39 AM 39.1667 -76.4667 270° West 175 201 2,000  Level Potomac TRACON
Sat 10:17:39 AM 39.1667 -76.5333 270° West 167 192 2,000 -350 Level Potomac TRACON
Sat 10:18:39 AM 39.1667 -76.5833 270° West 159 183 1,300 -750 Descending Potomac TRACON
Sat 10:19:39 AM 39.1667 -76.6333 270° West 142 163 500 -800 Descending Potomac TRACON

Login

Don't have an account? Register now (free) for customized features, flight alerts, and more!